createdAt,value
2018-07-25T00:00:33.400Z,14.70
2018-07-25T00:03:02.720Z,14.80
2018-07-25T00:05:33.628Z,15.32
2018-07-25T00:08:04.485Z,15.30
2018-07-25T00:10:40.631Z,14.05
2018-07-25T00:13:09.912Z,15.53
2018-07-25T00:15:38.755Z,14.20
2018-07-25T00:18:08.114Z,15.05
2018-07-25T00:20:37.059Z,13.25
2018-07-25T00:23:06.317Z,14.38
2018-07-25T00:25:35.563Z,14.10
2018-07-25T00:28:04.879Z,15.50
2018-07-25T00:30:34.144Z,15.55
2018-07-25T00:33:03.511Z,15.05
2018-07-25T00:35:32.941Z,14.73
2018-07-25T00:38:02.181Z,15.90
2018-07-25T00:40:31.389Z,15.83
2018-07-25T00:43:00.612Z,15.55
2018-07-25T00:45:29.814Z,15.78
2018-07-25T00:47:59.327Z,16.55
2018-07-25T00:50:28.832Z,16.50
2018-07-25T00:52:58.048Z,14.78
2018-07-25T00:55:27.342Z,14.80
2018-07-25T00:57:56.568Z,15.20
2018-07-25T01:00:29.095Z,14.83
2018-07-25T01:02:58.319Z,16.15
2018-07-25T01:05:28.396Z,14.13
2018-07-25T01:07:57.604Z,15.43
2018-07-25T01:10:30.122Z,15.80
2018-07-25T01:13:01.404Z,14.73
2018-07-25T01:15:30.908Z,17.27
2018-07-25T01:18:01.140Z,16.32
2018-07-25T01:20:30.395Z,15.08
2018-07-25T01:22:59.640Z,15.55
2018-07-25T01:25:28.891Z,15.50
2018-07-25T01:27:58.653Z,14.70
2018-07-25T01:30:28.940Z,15.68
2018-07-25T01:32:58.163Z,16.27
2018-07-25T01:35:27.374Z,15.50
2018-07-25T01:37:56.609Z,16.15
2018-07-25T01:40:26.102Z,15.63
2018-07-25T01:42:55.347Z,15.35
2018-07-25T01:45:24.660Z,14.75
2018-07-25T01:47:53.904Z,14.70
2018-07-25T01:50:24.230Z,16.15
2018-07-25T01:52:54.184Z,15.58
2018-07-25T01:55:23.426Z,15.90
2018-07-25T01:57:53.095Z,16.20
2018-07-25T02:00:23.429Z,15.83
2018-07-25T02:02:52.690Z,16.80
2018-07-25T02:05:21.977Z,16.50
2018-07-25T02:07:51.144Z,16.30
2018-07-25T02:10:20.381Z,17.25
2018-07-25T02:12:49.657Z,18.52
2018-07-25T02:15:18.869Z,17.27
2018-07-25T02:17:48.125Z,15.95
2018-07-25T02:20:19.290Z,15.80
2018-07-25T02:22:48.483Z,15.35
2018-07-25T02:25:17.733Z,15.45
2018-07-25T02:27:46.994Z,17.10
2018-07-25T02:30:16.294Z,16.97
2018-07-25T02:32:46.338Z,16.50
2018-07-25T02:35:15.598Z,16.30
2018-07-25T02:37:44.836Z,17.95
2018-07-25T02:40:14.309Z,16.77
2018-07-25T02:42:43.489Z,16.57
2018-07-25T02:45:12.671Z,16.02
2018-07-25T02:47:42.251Z,15.83
2018-07-25T02:50:12.359Z,16.67
2018-07-25T02:52:41.596Z,15.98
2018-07-25T02:55:10.827Z,17.80
2018-07-25T02:57:40.032Z,17.42
2018-07-25T03:00:09.583Z,16.42
2018-07-25T03:02:38.813Z,17.02
2018-07-25T03:05:08.101Z,18.67
2018-07-25T03:07:37.900Z,16.97
2018-07-25T03:10:07.271Z,15.13
2018-07-25T03:12:36.500Z,15.70
2018-07-25T03:15:07.472Z,17.98
2018-07-25T03:17:36.741Z,16.20
2018-07-25T03:20:06.722Z,16.23
2018-07-25T03:22:36.885Z,17.98
2018-07-25T03:25:06.207Z,17.90
2018-07-25T03:27:35.579Z,16.87
2018-07-25T03:30:05.101Z,17.40
2018-07-25T03:32:34.372Z,17.10
2018-07-25T03:35:03.725Z,17.10
2018-07-25T03:37:33.112Z,17.35
2018-07-25T03:40:02.365Z,16.05
2018-07-25T03:42:31.657Z,16.87
2018-07-25T03:45:00.842Z,16.20
2018-07-25T03:47:30.023Z,17.05
2018-07-25T03:49:58.941Z,16.67
2018-07-25T03:52:28.052Z,17.50
2018-07-25T03:54:57.577Z,18.07
2018-07-25T03:57:26.822Z,18.27
2018-07-25T03:59:56.151Z,17.55
2018-07-25T04:02:25.966Z,18.65
2018-07-25T04:04:55.177Z,18.67
2018-07-25T04:07:24.462Z,17.95
2018-07-25T04:09:53.722Z,16.37
2018-07-25T04:12:23.365Z,18.35
2018-07-25T04:14:52.545Z,17.40
2018-07-25T04:17:21.987Z,16.40
2018-07-25T04:19:51.380Z,17.82
2018-07-25T04:22:20.698Z,15.70
2018-07-25T04:24:50.025Z,15.30
2018-07-25T04:27:19.127Z,16.35
2018-07-25T04:29:56.317Z,17.50
2018-07-25T04:32:26.655Z,16.17
2018-07-25T04:34:55.896Z,16.10
2018-07-25T04:37:25.130Z,15.35
2018-07-25T04:39:59.064Z,16.12
2018-07-25T04:42:28.258Z,18.15
2018-07-25T04:44:58.682Z,15.65
2018-07-25T04:47:27.591Z,17.87
2018-07-25T04:49:56.943Z,16.87
2018-07-25T04:52:26.341Z,17.17
2018-07-25T04:55:13.444Z,16.48
2018-07-25T04:57:42.780Z,15.83
2018-07-25T05:00:14.309Z,16.23
2018-07-25T05:02:43.535Z,17.85
2018-07-25T05:05:14.618Z,17.52
2018-07-25T05:07:43.877Z,15.93
2018-07-25T05:10:15.967Z,15.80
2018-07-25T05:12:45.199Z,16.30
2018-07-25T05:15:16.508Z,15.05
2018-07-25T05:17:45.759Z,16.25
2018-07-25T05:20:16.816Z,17.15
2018-07-25T05:22:46.219Z,15.90
2018-07-25T05:25:17.347Z,17.35
2018-07-25T05:27:46.647Z,18.17
2018-07-25T05:30:17.668Z,16.27
2018-07-25T05:32:48.193Z,16.40
2018-07-25T05:35:19.527Z,14.70
2018-07-25T05:37:48.863Z,15.28
2018-07-25T05:40:18.306Z,14.25
2018-07-25T05:42:47.214Z,16.12
2018-07-25T05:45:18.666Z,15.23
2018-07-25T05:47:49.157Z,16.32
2018-07-25T05:50:18.845Z,15.88
2018-07-25T05:52:48.716Z,15.38
2018-07-25T05:55:17.606Z,15.88
2018-07-25T05:57:46.782Z,15.80
2018-07-25T06:00:16.116Z,15.15
2018-07-25T06:02:46.264Z,15.63
2018-07-25T06:05:15.490Z,17.55
2018-07-25T06:07:45.053Z,15.35
2018-07-25T06:10:14.654Z,16.07
2018-07-25T06:12:44.017Z,14.75
2018-07-25T06:15:13.215Z,14.95
2018-07-25T06:17:42.868Z,16.42
2018-07-25T06:20:12.354Z,16.07
2018-07-25T06:22:43.126Z,16.20
2018-07-25T06:25:13.899Z,15.63
2018-07-25T06:27:43.125Z,15.27
2018-07-25T06:30:12.606Z,15.93
2018-07-25T06:32:41.944Z,14.77
2018-07-25T06:35:11.588Z,15.30
2018-07-25T06:37:40.900Z,15.40
2018-07-25T06:40:10.278Z,15.40
2018-07-25T06:42:39.713Z,15.63
2018-07-25T06:45:08.954Z,16.63
2018-07-25T06:47:38.287Z,15.67
2018-07-25T06:50:09.057Z,14.33
2018-07-25T06:52:38.364Z,14.47
2018-07-25T06:55:07.649Z,15.90
2018-07-25T06:57:36.912Z,15.30
2018-07-25T07:00:06.746Z,15.67
2018-07-25T07:02:36.023Z,14.00
2018-07-25T07:05:06.465Z,14.27
2018-07-25T07:07:35.758Z,13.97
2018-07-25T07:10:08.540Z,14.70
2018-07-25T07:12:39.891Z,13.97
2018-07-25T07:15:10.327Z,14.37
2018-07-25T07:17:39.801Z,14.70
2018-07-25T07:20:10.152Z,14.83
2018-07-25T07:22:39.480Z,13.30
2018-07-25T07:25:10.863Z,14.00
2018-07-25T07:27:40.117Z,13.40
2018-07-25T07:30:11.779Z,12.80
2018-07-25T07:32:41.906Z,13.23
2018-07-25T07:35:11.202Z,12.97
2018-07-25T07:37:40.492Z,13.20
2018-07-25T07:40:11.524Z,12.17
2018-07-25T07:42:41.182Z,11.90
2018-07-25T07:45:12.632Z,13.90
2018-07-25T07:47:42.599Z,12.23
2018-07-25T07:50:13.937Z,14.17
2018-07-25T07:52:43.684Z,12.67
2018-07-25T07:55:12.960Z,12.93
2018-07-25T07:57:43.486Z,12.20
2018-07-25T08:00:14.914Z,12.40
2018-07-25T08:02:44.196Z,12.33
2018-07-25T08:05:13.886Z,13.27
2018-07-25T08:07:43.133Z,13.33
2018-07-25T08:10:12.517Z,12.80
2018-07-25T08:12:41.864Z,11.10
2018-07-25T08:15:12.939Z,12.60
2018-07-25T08:17:42.206Z,11.93
2018-07-25T08:20:12.499Z,12.37
2018-07-25T08:22:42.153Z,11.33
2018-07-25T08:25:11.464Z,10.07
2018-07-25T08:27:40.755Z,10.87
2018-07-25T08:30:10.619Z,11.90
2018-07-25T08:32:39.890Z,11.30
2018-07-25T08:35:09.214Z,11.40
2018-07-25T08:37:38.542Z,10.70
2018-07-25T08:40:08.158Z,9.90
2018-07-25T08:42:37.472Z,9.57
2018-07-25T08:45:10.598Z,8.70
2018-07-25T08:47:40.458Z,9.30
2018-07-25T08:50:10.658Z,9.07
2018-07-25T08:52:39.944Z,8.80
2018-07-25T08:55:09.156Z,8.50
2018-07-25T08:57:38.473Z,8.60
2018-07-25T09:00:10.455Z,8.90
2018-07-25T09:02:39.990Z,8.90
2018-07-25T09:05:09.216Z,8.67
2018-07-25T09:07:38.529Z,9.00
2018-07-25T09:10:08.780Z,9.37
2018-07-25T09:12:38.045Z,9.47
2018-07-25T09:15:07.340Z,9.87
2018-07-25T09:17:36.607Z,9.90
2018-07-25T09:20:11.505Z,9.67
2018-07-25T09:22:40.848Z,8.93
2018-07-25T09:25:15.740Z,10.10
2018-07-25T09:27:44.900Z,10.17
2018-07-25T09:30:14.173Z,8.87
2018-07-25T09:32:43.406Z,10.33
2018-07-25T09:35:12.652Z,9.17
2018-07-25T09:37:41.835Z,8.77
2018-07-25T09:40:11.349Z,9.00
2018-07-25T09:42:40.650Z,9.97
2018-07-25T09:45:10.753Z,10.30
2018-07-25T09:47:40.756Z,10.43
2018-07-25T09:50:15.944Z,7.70
2018-07-25T09:52:55.645Z,9.37
2018-07-25T09:55:27.180Z,9.03
2018-07-25T09:57:56.423Z,7.93
2018-07-25T10:00:31.209Z,8.43
2018-07-25T10:03:01.345Z,7.70
2018-07-25T10:05:31.672Z,8.40
2018-07-25T10:08:00.882Z,8.83
2018-07-25T10:10:30.408Z,8.40
2018-07-25T10:13:00.781Z,8.23
2018-07-25T10:15:30.090Z,7.83
2018-07-25T10:17:59.285Z,8.00
2018-07-25T10:20:28.649Z,8.20
2018-07-25T10:22:57.914Z,9.07
2018-07-25T10:25:29.339Z,8.57
2018-07-25T10:27:58.646Z,9.27
2018-07-25T10:30:28.350Z,8.30
2018-07-25T10:32:59.329Z,8.10
2018-07-25T10:35:28.251Z,8.30
2018-07-25T10:37:57.069Z,8.00
2018-07-25T10:40:26.273Z,8.73
2018-07-25T10:42:55.690Z,9.43
2018-07-25T10:45:25.380Z,7.90
2018-07-25T10:47:57.166Z,8.37
2018-07-25T10:50:26.450Z,8.63
2018-07-25T10:52:55.635Z,8.67
2018-07-25T10:55:24.833Z,8.40
2018-07-25T10:57:54.029Z,8.63
2018-07-25T11:00:23.323Z,7.43
2018-07-25T11:03:37.407Z,8.40
2018-07-25T11:06:10.862Z,7.40
2018-07-25T11:08:41.330Z,8.53
2018-07-25T11:11:12.790Z,8.30
2018-07-25T11:13:42.328Z,7.70
2018-07-25T11:16:11.707Z,6.90
2018-07-25T11:18:41.964Z,7.50
2018-07-25T11:21:11.345Z,7.20
2018-07-25T11:23:41.780Z,7.80
2018-07-25T11:26:10.986Z,6.73
2018-07-25T11:28:40.229Z,6.73
2018-07-25T11:31:10.749Z,6.10
2018-07-25T11:33:40.032Z,5.83
2018-07-25T11:36:12.243Z,6.30
2018-07-25T11:38:41.594Z,6.43
2018-07-25T11:41:11.843Z,5.50
2018-07-25T11:43:41.445Z,6.70
2018-07-25T11:46:13.139Z,7.00
2018-07-25T11:48:44.535Z,6.00
2018-07-25T11:51:15.335Z,6.03
2018-07-25T11:53:44.516Z,6.03
2018-07-25T11:56:14.953Z,6.30
2018-07-25T11:58:46.442Z,6.53
2018-07-25T12:01:15.790Z,6.73
2018-07-25T12:03:44.933Z,6.77
2018-07-25T12:06:14.431Z,7.27
2018-07-25T12:08:43.797Z,6.87
2018-07-25T12:11:13.097Z,6.77
2018-07-25T12:13:42.532Z,5.97
2018-07-25T12:16:11.830Z,6.70
2018-07-25T12:18:41.176Z,6.73
2018-07-25T12:21:10.931Z,6.53
2018-07-25T12:23:40.273Z,6.77
2018-07-25T12:26:09.548Z,6.93
2018-07-25T12:28:39.825Z,6.40
2018-07-25T12:31:09.109Z,6.40
2018-07-25T12:33:38.368Z,5.80
2018-07-25T12:36:07.711Z,6.60
2018-07-25T12:38:36.993Z,5.77
2018-07-25T12:41:06.275Z,5.60
2018-07-25T12:43:35.952Z,5.23
2018-07-25T12:46:05.273Z,5.37
2018-07-25T12:48:34.650Z,6.33
2018-07-25T12:51:03.983Z,6.43
2018-07-25T12:53:34.131Z,5.30
2018-07-25T12:56:03.433Z,5.50
2018-07-25T12:58:41.916Z,6.07
2018-07-25T13:01:11.243Z,5.40
2018-07-25T13:03:40.599Z,5.57
2018-07-25T13:06:09.822Z,5.10
2018-07-25T13:08:39.602Z,4.70
2018-07-25T13:11:08.820Z,5.00
2018-07-25T13:13:38.052Z,5.20
2018-07-25T13:16:07.677Z,5.30
2018-07-25T13:18:37.726Z,5.33
2018-07-25T13:21:07.337Z,4.83
2018-07-25T13:23:36.575Z,5.07
2018-07-25T13:26:05.895Z,4.90
2018-07-25T13:28:38.524Z,4.67
2018-07-25T13:31:08.078Z,4.77
2018-07-25T13:33:36.950Z,4.87
2018-07-25T13:36:06.179Z,3.60
2018-07-25T13:38:35.432Z,4.10
2018-07-25T13:41:05.774Z,4.63
2018-07-25T13:43:35.117Z,4.60
2018-07-25T13:46:04.592Z,4.60
2018-07-25T13:48:34.372Z,4.80
2018-07-25T13:51:03.651Z,3.93
2018-07-25T13:53:32.898Z,4.63
2018-07-25T13:56:02.088Z,4.90
2018-07-25T13:58:31.456Z,3.90
2018-07-25T14:01:00.727Z,4.17
2018-07-25T14:03:29.953Z,3.93
2018-07-25T14:05:59.282Z,3.80
2018-07-25T14:08:28.831Z,3.70
2018-07-25T14:10:58.403Z,3.60
2018-07-25T14:13:27.691Z,4.37
2018-07-25T14:15:56.936Z,3.97
2018-07-25T14:18:26.346Z,4.33
2018-07-25T14:20:55.720Z,3.53
2018-07-25T14:23:24.595Z,4.40
2018-07-25T14:25:53.758Z,4.50
2018-07-25T14:28:23.111Z,3.87
2018-07-25T14:30:52.351Z,4.70
2018-07-25T14:33:21.628Z,4.77
2018-07-25T14:35:50.870Z,5.20
2018-07-25T14:38:20.310Z,4.37
2018-07-25T14:40:49.613Z,3.73
2018-07-25T14:43:18.511Z,4.80
2018-07-25T14:45:48.361Z,3.80
2018-07-25T14:48:18.984Z,4.47
2018-07-25T14:50:48.143Z,5.50
2018-07-25T14:53:17.669Z,4.70
2018-07-25T14:55:47.873Z,4.57
2018-07-25T14:58:17.338Z,5.57
2018-07-25T15:00:46.839Z,5.93
2018-07-25T15:03:16.070Z,5.43
2018-07-25T15:05:45.349Z,5.60
2018-07-25T15:08:14.643Z,5.70
2018-07-25T15:10:43.962Z,5.20
2018-07-25T15:13:13.281Z,5.30
2018-07-25T15:15:42.059Z,4.70
2018-07-25T15:18:11.175Z,5.17
2018-07-25T15:20:40.428Z,6.00
2018-07-25T15:23:09.712Z,5.30
2018-07-25T15:25:38.908Z,5.67
2018-07-25T15:28:08.154Z,5.27
2018-07-25T15:30:37.371Z,5.77
2018-07-25T15:33:06.624Z,5.50
2018-07-25T15:35:35.828Z,5.93
2018-07-25T15:38:05.194Z,5.27
2018-07-25T15:40:34.407Z,5.23
2018-07-25T15:43:03.615Z,5.43
2018-07-25T15:45:32.894Z,5.37
2018-07-25T15:48:02.047Z,5.20
2018-07-25T15:50:31.501Z,5.07
2018-07-25T15:53:01.143Z,5.57
2018-07-25T15:55:31.118Z,4.53
2018-07-25T15:58:00.425Z,4.97
2018-07-25T16:00:29.749Z,5.77
2018-07-25T16:02:58.882Z,5.67
2018-07-25T16:05:30.281Z,4.83
2018-07-25T16:07:59.515Z,5.20
2018-07-25T16:10:28.838Z,4.90
2018-07-25T16:12:58.083Z,5.20
2018-07-25T16:15:27.428Z,5.43
2018-07-25T16:17:56.962Z,7.27
2018-07-25T16:20:27.165Z,5.23
2018-07-25T16:22:56.599Z,5.27
2018-07-25T16:25:28.010Z,6.03
2018-07-25T16:27:57.297Z,5.87
2018-07-25T16:30:26.598Z,6.20
2018-07-25T16:32:55.911Z,5.40
2018-07-25T16:35:25.288Z,6.63
2018-07-25T16:37:54.836Z,5.93
2018-07-25T16:40:24.821Z,4.60
2018-07-25T16:42:54.301Z,5.63
2018-07-25T16:45:23.709Z,5.90
2018-07-25T16:47:52.884Z,5.10
2018-07-25T16:50:23.054Z,5.77
2018-07-25T16:52:52.740Z,6.20
2018-07-25T16:55:24.604Z,5.70
2018-07-25T16:57:54.520Z,6.23
2018-07-25T17:00:24.092Z,6.50
2018-07-25T17:02:53.351Z,5.50
2018-07-25T17:05:22.755Z,4.30
2018-07-25T17:07:52.024Z,5.13
2018-07-25T17:10:21.335Z,5.83
2018-07-25T17:12:50.642Z,5.77
2018-07-25T17:15:19.850Z,6.03
2018-07-25T17:17:49.310Z,5.97
2018-07-25T17:20:19.369Z,5.63
2018-07-25T17:22:48.692Z,6.33
2018-07-25T17:25:21.527Z,7.27
2018-07-25T17:27:50.816Z,6.87
2018-07-25T17:30:20.142Z,6.20
2018-07-25T17:32:49.511Z,5.23
2018-07-25T17:35:18.812Z,4.87
2018-07-25T17:37:48.330Z,4.90
2018-07-25T17:40:17.569Z,5.87
2018-07-25T17:42:46.787Z,5.00
2018-07-25T17:45:15.998Z,4.30
2018-07-25T17:47:45.214Z,4.60
2018-07-25T17:50:15.424Z,4.23
2018-07-25T17:52:45.769Z,4.70
2018-07-25T17:55:15.917Z,3.80
2018-07-25T17:57:45.199Z,4.37
2018-07-25T18:00:16.960Z,4.57
2018-07-25T18:02:46.403Z,6.10
2018-07-25T18:05:17.749Z,6.70
2018-07-25T18:07:47.014Z,5.13
2018-07-25T18:10:16.458Z,9.13
2018-07-25T18:12:45.769Z,9.27
2018-07-25T18:15:15.012Z,7.63
2018-07-25T18:17:44.851Z,12.57
2018-07-25T18:20:14.253Z,7.40
2018-07-25T18:22:43.478Z,6.43
2018-07-25T18:25:12.359Z,6.03
2018-07-25T18:27:42.330Z,5.80
2018-07-25T18:30:12.696Z,6.37
2018-07-25T18:32:42.860Z,6.40
2018-07-25T18:35:12.096Z,11.13
2018-07-25T18:37:41.415Z,19.00
2018-07-25T18:40:11.768Z,11.10
2018-07-25T18:42:41.081Z,7.37
2018-07-25T18:45:10.421Z,7.90
2018-07-25T18:47:39.940Z,7.13
2018-07-25T18:50:12.542Z,6.60
2018-07-25T18:52:41.952Z,7.20
2018-07-25T18:55:11.200Z,6.87
2018-07-25T18:57:40.431Z,7.03
2018-07-25T19:00:10.183Z,7.07
2018-07-25T19:02:39.607Z,7.17
2018-07-25T19:05:08.953Z,5.93
2018-07-25T19:07:38.666Z,7.23
2018-07-25T19:10:14.476Z,7.70
2018-07-25T19:12:43.674Z,6.07
2018-07-25T19:15:18.524Z,7.50
2018-07-25T19:17:48.126Z,6.63
2018-07-25T19:20:17.668Z,6.30
2018-07-25T19:22:46.945Z,7.00
2018-07-25T19:25:18.190Z,6.50
2018-07-25T19:27:49.460Z,6.53
2018-07-25T19:30:19.754Z,7.37
2018-07-25T19:32:49.692Z,7.13
2018-07-25T19:35:31.931Z,6.67
2018-07-25T19:38:01.524Z,7.50
2018-07-25T19:40:30.857Z,6.93
2018-07-25T19:43:00.137Z,7.20
2018-07-25T19:45:29.697Z,5.97
2018-07-25T19:47:58.996Z,7.00
2018-07-25T19:50:28.534Z,8.20
2018-07-25T19:52:57.805Z,9.37
2018-07-25T19:55:27.193Z,7.60
2018-07-25T19:57:56.705Z,7.40
2018-07-25T20:00:27.131Z,6.50
2018-07-25T20:02:57.435Z,7.80
2018-07-25T20:05:27.061Z,7.03
2018-07-25T20:07:57.543Z,8.00
2018-07-25T20:10:26.784Z,7.57
2018-07-25T20:12:56.001Z,7.00
2018-07-25T20:15:30.681Z,7.70
2018-07-25T20:18:00.323Z,8.67
2018-07-25T20:20:31.735Z,8.30
2018-07-25T20:23:44.546Z,8.10
2018-07-25T20:26:37.063Z,7.33
2018-07-25T20:29:06.582Z,8.10
2018-07-25T20:31:36.112Z,6.93
2018-07-25T20:34:05.473Z,7.50
2018-07-25T20:36:34.711Z,8.70
2018-07-25T20:39:07.815Z,8.10
2018-07-25T20:41:37.156Z,8.40
2018-07-25T20:44:06.483Z,7.60
2018-07-25T20:46:35.995Z,7.70
2018-07-25T20:49:05.920Z,8.17
2018-07-25T20:51:36.792Z,7.80
2018-07-25T20:54:06.401Z,7.07
2018-07-25T20:56:36.541Z,7.80
2018-07-25T20:59:06.072Z,7.70
2018-07-25T21:01:37.095Z,7.33
2018-07-25T21:04:06.356Z,8.20
2018-07-25T21:06:35.571Z,7.47
2018-07-25T21:09:07.388Z,7.93
2018-07-25T21:11:37.010Z,7.30
2018-07-25T21:14:06.263Z,7.77
2018-07-25T21:16:36.054Z,7.63
2018-07-25T21:19:05.429Z,7.67
2018-07-25T21:21:35.657Z,7.80
2018-07-25T21:24:05.658Z,8.70
2018-07-25T21:26:35.238Z,7.97
2018-07-25T21:29:04.759Z,7.70
2018-07-25T21:31:34.285Z,7.17
2018-07-25T21:34:03.604Z,7.37
2018-07-25T21:36:32.901Z,9.07
2018-07-25T21:39:02.614Z,8.40
2018-07-25T21:41:33.393Z,8.00
2018-07-25T21:44:02.649Z,8.23
2018-07-25T21:46:31.856Z,8.27
2018-07-25T21:49:43.469Z,8.27
2018-07-25T21:52:40.613Z,8.13
2018-07-25T21:55:09.869Z,8.00
2018-07-25T21:57:40.776Z,9.77
2018-07-25T22:00:14.810Z,8.07
2018-07-25T22:02:45.660Z,9.23
2018-07-25T22:05:15.781Z,8.57
2018-07-25T22:07:47.629Z,8.17
2018-07-25T22:10:16.851Z,7.50
2018-07-25T22:12:46.479Z,8.90
2018-07-25T22:15:16.362Z,7.57
2018-07-25T22:17:45.599Z,7.90
2018-07-25T22:20:16.706Z,8.30
2018-07-25T22:22:45.972Z,8.43
2018-07-25T22:25:15.235Z,8.83
2018-07-25T22:27:46.301Z,8.00
2018-07-25T22:30:17.264Z,8.57
2018-07-25T22:32:46.607Z,8.70
2018-07-25T22:35:16.838Z,8.97
2018-07-25T22:37:48.695Z,7.80
2018-07-25T22:40:18.573Z,7.70
2018-07-25T22:42:47.858Z,8.43
2018-07-25T22:45:18.557Z,8.70
2018-07-25T22:47:48.673Z,8.03
2018-07-25T22:50:19.912Z,8.83
2018-07-25T22:52:50.305Z,8.70
2018-07-25T22:55:24.457Z,9.10
2018-07-25T22:57:54.295Z,7.73
2018-07-25T23:00:24.343Z,8.50
2018-07-25T23:02:55.536Z,8.40
2018-07-25T23:05:24.821Z,7.93
2018-07-25T23:07:54.108Z,9.27
2018-07-25T23:10:23.500Z,9.30
2018-07-25T23:12:53.348Z,9.30
2018-07-25T23:15:23.456Z,8.60
2018-07-25T23:18:00.433Z,9.10
2018-07-25T23:20:30.670Z,8.23
2018-07-25T23:23:01.192Z,9.50
2018-07-25T23:25:31.204Z,9.77
2018-07-25T23:28:01.231Z,7.70
2018-07-25T23:30:31.280Z,8.75
2018-07-25T23:33:01.866Z,9.00
2018-07-25T23:35:31.527Z,9.35
2018-07-25T23:38:01.014Z,7.97
2018-07-25T23:40:30.359Z,7.95
2018-07-25T23:43:00.596Z,7.87
2018-07-25T23:45:29.851Z,9.15
2018-07-25T23:47:59.169Z,8.97
2018-07-25T23:50:28.390Z,8.55
2018-07-25T23:52:57.659Z,8.30
2018-07-25T23:55:26.877Z,8.25
2018-07-25T23:57:56.269Z,9.45
